createdAt,value
2023-03-03T00:00:18.670Z,27.83
2023-03-03T00:02:44.906Z,28.23
2023-03-03T00:05:14.731Z,27.87
2023-03-03T00:07:43.284Z,28.53
2023-03-03T00:10:10.447Z,27.77
2023-03-03T00:12:42.803Z,25.93
2023-03-03T00:15:14.888Z,26.53
2023-03-03T00:17:42.507Z,26.27
2023-03-03T00:20:30.348Z,26.13
2023-03-03T00:22:57.209Z,27.30
2023-03-03T00:25:28.330Z,25.53
2023-03-03T00:27:54.572Z,25.90
2023-03-03T00:30:24.713Z,26.77
2023-03-03T00:32:52.433Z,28.60
2023-03-03T00:35:29.758Z,28.57
2023-03-03T00:37:57.147Z,26.23
2023-03-03T00:40:24.623Z,28.13
2023-03-03T00:42:52.391Z,27.33
2023-03-03T00:45:27.681Z,28.03
2023-03-03T00:47:55.200Z,29.20
2023-03-03T00:50:30.629Z,30.03
2023-03-03T00:53:05.708Z,30.40
2023-03-03T00:55:33.436Z,30.07
2023-03-03T00:57:59.626Z,32.20
2023-03-03T01:00:25.808Z,30.07
2023-03-03T01:02:52.280Z,31.30
2023-03-03T01:05:19.965Z,32.27
2023-03-03T01:07:46.314Z,33.37
2023-03-03T01:10:13.052Z,32.03
2023-03-03T01:12:39.603Z,34.63
2023-03-03T01:15:07.114Z,33.20
2023-03-03T01:17:33.562Z,31.53
2023-03-03T01:19:59.740Z,33.20
2023-03-03T01:22:26.598Z,31.17
2023-03-03T01:24:52.843Z,30.73
2023-03-03T01:27:19.073Z,31.33
2023-03-03T01:29:45.277Z,31.40
2023-03-03T01:32:11.583Z,30.40
2023-03-03T01:34:37.876Z,31.67
2023-03-03T01:37:04.216Z,31.80
2023-03-03T01:39:31.078Z,30.87
2023-03-03T01:41:57.269Z,31.67
2023-03-03T01:44:26.005Z,32.03
2023-03-03T01:46:55.412Z,29.80
2023-03-03T01:49:24.027Z,29.43
2023-03-03T01:51:52.684Z,29.87
2023-03-03T01:54:23.523Z,31.30
2023-03-03T01:56:52.479Z,27.90
2023-03-03T01:59:21.250Z,30.40
2023-03-03T02:01:47.934Z,29.77
2023-03-03T02:04:14.796Z,30.30
2023-03-03T02:06:44.710Z,29.93
2023-03-03T02:09:14.227Z,29.17
2023-03-03T02:11:42.251Z,29.60
2023-03-03T02:14:10.039Z,29.77
2023-03-03T02:16:36.224Z,30.10
2023-03-03T02:19:04.469Z,29.30
2023-03-03T02:21:30.862Z,28.63
2023-03-03T02:24:01.263Z,31.20
2023-03-03T02:26:29.190Z,27.97
2023-03-03T02:28:55.455Z,28.53
2023-03-03T02:31:24.011Z,30.13
2023-03-03T02:33:51.415Z,28.60
2023-03-03T02:36:20.520Z,30.07
2023-03-03T02:38:50.887Z,29.30
2023-03-03T02:41:25.713Z,28.87
2023-03-03T02:43:56.284Z,29.73
2023-03-03T02:46:22.495Z,31.13
2023-03-03T02:48:48.780Z,29.33
2023-03-03T02:51:14.967Z,30.07
2023-03-03T02:53:41.197Z,31.20
2023-03-03T02:56:08.850Z,29.90
2023-03-03T02:58:35.035Z,30.83
2023-03-03T03:01:02.174Z,28.67
2023-03-03T03:03:28.502Z,29.27
2023-03-03T03:05:54.639Z,30.47
2023-03-03T03:08:20.899Z,29.87
2023-03-03T03:10:47.222Z,29.50
2023-03-03T03:13:13.471Z,30.83
2023-03-03T03:15:39.966Z,28.87
2023-03-03T03:18:06.949Z,32.00
2023-03-03T03:20:36.030Z,30.37
2023-03-03T03:23:02.150Z,30.23
2023-03-03T03:25:28.320Z,29.77
2023-03-03T03:27:54.446Z,29.73
2023-03-03T03:30:21.727Z,29.13
2023-03-03T03:32:47.994Z,28.83
2023-03-03T03:35:16.425Z,29.63
2023-03-03T03:37:42.619Z,28.37
2023-03-03T03:40:21.427Z,30.60
2023-03-03T03:42:47.628Z,29.17
2023-03-03T03:45:14.498Z,29.53
2023-03-03T03:47:40.739Z,29.30
2023-03-03T03:50:08.297Z,31.07
2023-03-03T03:52:35.091Z,31.30
2023-03-03T03:55:01.586Z,29.57
2023-03-03T03:57:27.892Z,28.63
2023-03-03T03:59:54.137Z,30.60
2023-03-03T04:02:20.425Z,31.93
2023-03-03T04:04:46.707Z,29.43
2023-03-03T04:07:13.419Z,30.40
2023-03-03T04:09:40.457Z,29.40
2023-03-03T04:12:07.025Z,29.27
2023-03-03T04:14:33.239Z,27.50
2023-03-03T04:16:59.507Z,27.10
2023-03-03T04:19:25.905Z,28.97
2023-03-03T04:21:52.219Z,27.40
2023-03-03T04:24:18.856Z,28.67
2023-03-03T04:26:45.700Z,29.87
2023-03-03T04:29:11.898Z,28.93
2023-03-03T04:31:38.294Z,32.23
2023-03-03T04:34:04.883Z,29.97
2023-03-03T04:36:31.148Z,33.43
2023-03-03T04:38:57.330Z,30.87
2023-03-03T04:41:23.565Z,35.50
2023-03-03T04:43:50.609Z,34.47
2023-03-03T04:46:16.893Z,30.80
2023-03-03T04:48:43.128Z,32.50
2023-03-03T04:51:09.356Z,27.87
2023-03-03T04:53:37.602Z,30.70
2023-03-03T04:56:04.730Z,31.87
2023-03-03T04:58:31.031Z,31.43
2023-03-03T05:00:57.928Z,32.30
2023-03-03T05:03:26.079Z,31.43
2023-03-03T05:05:52.398Z,32.20
2023-03-03T05:08:18.652Z,32.67
2023-03-03T05:10:44.791Z,34.00
2023-03-03T05:13:11.090Z,34.23
2023-03-03T05:15:37.411Z,33.97
2023-03-03T05:18:04.627Z,33.10
2023-03-03T05:20:30.783Z,34.83
2023-03-03T05:22:59.126Z,36.10
2023-03-03T05:25:25.512Z,38.33
2023-03-03T05:27:51.731Z,37.47
2023-03-03T05:30:17.859Z,40.07
2023-03-03T05:32:49.964Z,38.37
2023-03-03T05:35:17.396Z,37.57
2023-03-03T05:37:46.964Z,37.03
2023-03-03T05:40:13.956Z,38.07
2023-03-03T05:42:40.243Z,38.70
2023-03-03T05:45:07.445Z,37.73
2023-03-03T05:47:33.887Z,37.83
2023-03-03T05:50:00.505Z,39.33
2023-03-03T05:52:27.684Z,35.17
2023-03-03T05:54:54.054Z,37.30
2023-03-03T05:57:20.334Z,37.40
2023-03-03T05:59:46.736Z,37.93
2023-03-03T06:02:13.231Z,39.17
2023-03-03T06:04:39.696Z,37.90
2023-03-03T06:07:05.936Z,40.00
2023-03-03T06:09:33.221Z,38.40
2023-03-03T06:11:59.405Z,35.57
2023-03-03T06:14:27.171Z,37.60
2023-03-03T06:16:53.872Z,39.17
2023-03-03T06:19:20.344Z,38.00
2023-03-03T06:21:46.544Z,36.93
2023-03-03T06:24:12.778Z,37.13
2023-03-03T06:26:39.617Z,38.20
2023-03-03T06:29:06.384Z,37.77
2023-03-03T06:31:33.168Z,37.47
2023-03-03T06:33:59.531Z,35.17
2023-03-03T06:36:26.421Z,36.23
2023-03-03T06:38:52.656Z,38.03
2023-03-03T06:41:18.846Z,33.80
2023-03-03T06:43:47.872Z,36.17
2023-03-03T06:46:14.135Z,34.43
2023-03-03T06:48:41.202Z,33.53
2023-03-03T06:51:20.610Z,31.90
2023-03-03T06:53:48.053Z,29.97
2023-03-03T06:56:14.240Z,31.40
2023-03-03T06:58:40.435Z,30.43
2023-03-03T07:01:13.386Z,31.37
2023-03-03T07:03:39.691Z,30.97
2023-03-03T07:06:13.580Z,30.60
2023-03-03T07:08:40.306Z,30.27
2023-03-03T07:11:11.149Z,31.70
2023-03-03T07:13:38.248Z,31.23
2023-03-03T07:16:11.702Z,31.20
2023-03-03T07:18:40.320Z,31.10
2023-03-03T07:21:14.443Z,30.13
2023-03-03T07:23:41.918Z,31.97
2023-03-03T07:26:10.055Z,30.73
2023-03-03T07:28:37.563Z,32.93
2023-03-03T07:31:17.805Z,30.00
2023-03-03T07:33:44.983Z,31.07
2023-03-03T07:36:23.951Z,31.47
2023-03-03T07:38:53.094Z,31.10
2023-03-03T07:41:22.659Z,29.37
2023-03-03T07:43:50.342Z,28.20
2023-03-03T07:46:29.184Z,27.17
2023-03-03T07:48:56.754Z,27.00
2023-03-03T07:51:26.860Z,28.17
2023-03-03T07:53:53.947Z,27.70
2023-03-03T07:56:27.741Z,27.37
2023-03-03T07:58:55.286Z,27.90
2023-03-03T08:01:48.571Z,27.17
2023-03-03T08:04:21.062Z,26.83
2023-03-03T08:06:49.293Z,26.23
2023-03-03T08:09:44.568Z,25.93
2023-03-03T08:12:25.209Z,24.83
2023-03-03T08:14:52.014Z,24.50
2023-03-03T08:17:21.325Z,25.00
2023-03-03T08:19:48.088Z,23.77
2023-03-03T08:22:16.430Z,24.60
2023-03-03T08:24:42.757Z,23.43
2023-03-03T08:27:08.952Z,25.23
2023-03-03T08:29:35.091Z,24.20
2023-03-03T08:32:01.434Z,23.17
2023-03-03T08:34:28.398Z,24.50
2023-03-03T08:36:57.325Z,23.67
2023-03-03T08:39:23.575Z,22.87
2023-03-03T08:41:50.082Z,22.07
2023-03-03T08:44:16.386Z,22.13
2023-03-03T08:46:43.651Z,22.07
2023-03-03T08:49:10.014Z,22.23
2023-03-03T08:51:36.927Z,23.17
2023-03-03T08:54:03.294Z,25.17
2023-03-03T08:56:29.599Z,22.70
2023-03-03T08:59:03.404Z,25.10
2023-03-03T09:01:29.870Z,24.87
2023-03-03T09:03:56.204Z,23.50
2023-03-03T09:06:22.696Z,22.97
2023-03-03T09:08:49.650Z,23.97
2023-03-03T09:11:22.379Z,23.73
2023-03-03T09:13:52.522Z,22.97
2023-03-03T09:16:20.813Z,22.17
2023-03-03T09:18:47.072Z,22.83
2023-03-03T09:21:21.055Z,22.37
2023-03-03T09:23:51.372Z,22.00
2023-03-03T09:26:29.762Z,22.30
2023-03-03T09:28:59.194Z,23.50
2023-03-03T09:31:27.987Z,23.43
2023-03-03T09:33:57.031Z,26.83
2023-03-03T09:36:25.481Z,29.37
2023-03-03T09:38:52.861Z,26.10
2023-03-03T09:41:55.460Z,27.10
2023-03-03T09:44:34.617Z,27.23
2023-03-03T09:47:18.191Z,26.43
2023-03-03T09:49:54.153Z,24.77
2023-03-03T09:52:33.279Z,22.63
2023-03-03T09:55:17.633Z,23.87
2023-03-03T09:58:08.159Z,21.70
2023-03-03T10:00:44.285Z,24.63
2023-03-03T10:03:25.891Z,23.17
2023-03-03T10:05:58.611Z,25.63
2023-03-03T10:08:36.796Z,24.17
2023-03-03T10:11:11.230Z,25.00
2023-03-03T10:13:56.230Z,26.30
2023-03-03T10:16:35.559Z,24.57
2023-03-03T10:19:03.329Z,23.33
2023-03-03T10:21:34.072Z,24.37
2023-03-03T10:24:05.845Z,22.17
2023-03-03T10:26:52.555Z,23.03
2023-03-03T10:29:33.268Z,25.97
2023-03-03T10:32:38.081Z,25.40
2023-03-03T10:35:28.404Z,24.27
2023-03-03T10:38:06.199Z,22.00
2023-03-03T10:40:35.206Z,24.37
2023-03-03T10:43:31.073Z,22.03
2023-03-03T10:46:15.937Z,25.60
2023-03-03T10:48:56.880Z,26.07
2023-03-03T10:51:28.248Z,25.33
2023-03-03T10:54:05.299Z,25.33
2023-03-03T10:56:52.140Z,28.57
2023-03-03T10:59:35.642Z,29.20
2023-03-03T11:02:06.085Z,28.20
2023-03-03T11:05:08.685Z,29.40
2023-03-03T11:07:38.668Z,25.77
2023-03-03T11:10:18.770Z,27.03
2023-03-03T11:12:53.215Z,26.90
2023-03-03T11:15:37.101Z,26.97
2023-03-03T11:18:15.665Z,25.60
2023-03-03T11:20:46.388Z,26.63
2023-03-03T11:23:42.468Z,27.67
2023-03-03T11:26:11.959Z,25.87
2023-03-03T11:28:48.330Z,29.03
2023-03-03T11:31:21.752Z,28.27
2023-03-03T11:33:54.760Z,27.13
2023-03-03T11:36:23.118Z,29.17
2023-03-03T11:38:54.796Z,27.07
2023-03-03T11:41:31.650Z,28.00
2023-03-03T11:44:03.262Z,26.03
2023-03-03T11:46:35.385Z,27.40
2023-03-03T11:49:05.020Z,28.00
2023-03-03T11:51:41.070Z,27.27
2023-03-03T11:54:12.767Z,25.90
2023-03-03T11:56:40.810Z,25.43
2023-03-03T11:59:40.415Z,28.60
2023-03-03T12:02:21.698Z,26.00
2023-03-03T12:04:50.145Z,24.50
2023-03-03T12:07:23.705Z,26.07
2023-03-03T12:09:57.316Z,25.53
2023-03-03T12:12:25.735Z,26.10
2023-03-03T12:15:04.442Z,26.80
2023-03-03T12:17:51.353Z,25.37
2023-03-03T12:20:23.406Z,24.13
2023-03-03T12:23:07.048Z,22.20
2023-03-03T12:25:36.507Z,24.13
2023-03-03T12:28:05.203Z,25.27
2023-03-03T12:30:43.856Z,24.07
2023-03-03T12:33:20.877Z,23.83
2023-03-03T12:35:53.776Z,21.73
2023-03-03T12:38:28.076Z,21.80
2023-03-03T12:40:59.020Z,23.17
2023-03-03T12:43:39.395Z,22.77
2023-03-03T12:46:09.682Z,22.97
2023-03-03T12:48:40.494Z,22.63
2023-03-03T12:51:13.986Z,20.33
2023-03-03T12:53:48.816Z,21.47
2023-03-03T12:56:17.598Z,20.90
2023-03-03T12:58:51.017Z,22.10
2023-03-03T13:01:30.604Z,21.10
2023-03-03T13:04:04.880Z,21.00
2023-03-03T13:06:32.565Z,19.70
2023-03-03T13:09:06.121Z,21.47
2023-03-03T13:11:49.788Z,20.47
2023-03-03T13:14:25.470Z,20.57
2023-03-03T13:17:01.992Z,20.80
2023-03-03T13:19:32.346Z,19.97
2023-03-03T13:22:01.512Z,21.50
2023-03-03T13:24:32.082Z,21.37
2023-03-03T13:27:01.096Z,20.50
2023-03-03T13:29:30.076Z,20.60
2023-03-03T13:31:59.658Z,20.37
2023-03-03T13:34:37.065Z,17.27
2023-03-03T13:37:07.575Z,17.20
2023-03-03T13:39:39.552Z,18.67
2023-03-03T13:42:14.202Z,18.20
2023-03-03T13:44:42.755Z,17.50
2023-03-03T13:47:14.448Z,17.53
2023-03-03T13:50:00.713Z,16.33
2023-03-03T13:52:28.098Z,17.50
2023-03-03T13:55:06.517Z,16.63
2023-03-03T13:57:45.606Z,17.40
2023-03-03T14:00:20.159Z,18.13
2023-03-03T14:03:17.319Z,18.10
2023-03-03T14:05:45.549Z,17.93
2023-03-03T14:08:19.622Z,15.87
2023-03-03T14:10:51.371Z,16.90
2023-03-03T14:13:20.241Z,16.77
2023-03-03T14:15:51.552Z,16.60
2023-03-03T14:18:24.198Z,16.30
2023-03-03T14:20:52.844Z,17.63
2023-03-03T14:23:22.584Z,17.30
2023-03-03T14:25:59.467Z,16.97
2023-03-03T14:28:27.714Z,15.87
2023-03-03T14:30:55.730Z,17.70
2023-03-03T14:33:26.614Z,17.53
2023-03-03T14:36:15.486Z,17.20
2023-03-03T14:38:46.075Z,16.03
2023-03-03T14:41:20.680Z,17.27
2023-03-03T14:43:57.569Z,17.37
2023-03-03T14:46:33.186Z,17.67
2023-03-03T14:49:01.069Z,18.27
2023-03-03T14:51:31.209Z,16.40
2023-03-03T14:53:57.564Z,16.97
2023-03-03T14:56:24.880Z,17.73
2023-03-03T14:58:52.085Z,15.10
2023-03-03T15:01:23.709Z,17.87
2023-03-03T15:03:59.090Z,16.70
2023-03-03T15:06:31.134Z,17.53
2023-03-03T15:08:57.352Z,16.47
2023-03-03T15:11:27.539Z,16.67
2023-03-03T15:13:55.466Z,17.30
2023-03-03T15:16:23.154Z,16.93
2023-03-03T15:19:21.614Z,17.03
2023-03-03T15:21:58.836Z,18.03
2023-03-03T15:24:31.169Z,17.67
2023-03-03T15:27:00.948Z,16.17
2023-03-03T15:29:30.624Z,18.13
2023-03-03T15:32:02.008Z,17.50
2023-03-03T15:34:35.990Z,17.80
2023-03-03T15:37:11.327Z,16.43
2023-03-03T15:39:43.669Z,18.17
2023-03-03T15:42:13.670Z,18.10
2023-03-03T15:44:48.154Z,16.67
2023-03-03T15:47:28.967Z,17.17
2023-03-03T15:50:05.760Z,17.00
2023-03-03T15:52:40.501Z,17.70
2023-03-03T15:55:17.321Z,16.93
2023-03-03T15:57:53.184Z,16.43
2023-03-03T16:00:29.533Z,16.43
2023-03-03T16:02:59.012Z,18.20
2023-03-03T16:05:35.233Z,17.60
2023-03-03T16:08:12.860Z,17.43
2023-03-03T16:10:49.039Z,16.50
2023-03-03T16:13:22.546Z,17.03
2023-03-03T16:15:57.925Z,16.60
2023-03-03T16:18:33.333Z,18.17
2023-03-03T16:21:13.323Z,16.77
2023-03-03T16:23:46.562Z,18.30
2023-03-03T16:26:21.144Z,19.37
2023-03-03T16:28:56.902Z,17.23
2023-03-03T16:31:27.077Z,15.77
2023-03-03T16:33:58.509Z,17.87
2023-03-03T16:36:30.298Z,20.10
2023-03-03T16:39:02.690Z,17.77
2023-03-03T16:41:39.601Z,17.30
2023-03-03T16:44:15.865Z,17.10
2023-03-03T16:46:43.535Z,18.93
2023-03-03T16:49:14.866Z,17.83
2023-03-03T16:51:45.574Z,17.80
2023-03-03T16:54:18.099Z,18.03
2023-03-03T16:56:48.336Z,17.43
2023-03-03T16:59:38.786Z,17.23
2023-03-03T17:02:18.899Z,19.40
2023-03-03T17:04:47.164Z,17.33
2023-03-03T17:07:23.673Z,17.73
2023-03-03T17:10:05.655Z,19.27
2023-03-03T17:12:47.361Z,16.57
2023-03-03T17:15:24.742Z,17.57
2023-03-03T17:17:56.860Z,17.77
2023-03-03T17:20:30.863Z,17.70
2023-03-03T17:23:08.889Z,18.30
2023-03-03T17:25:39.862Z,16.57
2023-03-03T17:28:19.449Z,16.37
2023-03-03T17:30:48.964Z,18.90
2023-03-03T17:33:27.948Z,18.27
2023-03-03T17:36:04.070Z,17.70
2023-03-03T17:38:38.152Z,17.90
2023-03-03T17:41:08.711Z,18.43
2023-03-03T17:43:43.339Z,17.33
2023-03-03T17:46:14.627Z,19.20
2023-03-03T17:49:05.011Z,18.80
2023-03-03T17:51:55.468Z,17.10
2023-03-03T17:54:40.022Z,18.30
2023-03-03T17:57:20.515Z,18.27
2023-03-03T17:59:58.554Z,17.93
2023-03-03T18:02:43.220Z,17.77
2023-03-03T18:05:43.732Z,17.37
2023-03-03T18:08:26.319Z,16.60
2023-03-03T18:11:15.197Z,18.17
2023-03-03T18:14:15.917Z,17.83
2023-03-03T18:17:01.480Z,17.17
2023-03-03T18:20:01.655Z,17.33
2023-03-03T18:22:31.332Z,18.13
2023-03-03T18:25:00.760Z,17.70
2023-03-03T18:27:35.212Z,18.53
2023-03-03T18:30:20.452Z,18.60
2023-03-03T18:33:00.426Z,18.63
2023-03-03T18:35:30.658Z,18.20
2023-03-03T18:37:57.232Z,18.60
2023-03-03T18:40:30.596Z,18.80
2023-03-03T18:42:56.909Z,18.87
2023-03-03T18:45:49.931Z,19.23
2023-03-03T18:48:17.622Z,18.67
2023-03-03T18:50:44.759Z,18.47
2023-03-03T18:53:18.100Z,18.67
2023-03-03T18:55:45.792Z,18.87
2023-03-03T18:58:33.872Z,18.43
2023-03-03T19:01:11.406Z,19.77
2023-03-03T19:03:56.158Z,17.73
2023-03-03T19:06:30.040Z,19.43
2023-03-03T19:08:57.502Z,21.27
2023-03-03T19:11:35.294Z,20.63
2023-03-03T19:14:31.149Z,22.67
2023-03-03T19:16:58.600Z,23.60
2023-03-03T19:19:25.625Z,20.77
2023-03-03T19:22:19.193Z,23.17
2023-03-03T19:25:12.443Z,21.53
2023-03-03T19:27:43.199Z,20.13
2023-03-03T19:30:41.317Z,23.07
2023-03-03T19:33:22.632Z,24.20
2023-03-03T19:36:01.821Z,22.67
2023-03-03T19:38:33.865Z,22.27
2023-03-03T19:41:08.144Z,23.20
2023-03-03T19:43:43.730Z,21.53
2023-03-03T19:46:22.709Z,25.30
2023-03-03T19:48:57.023Z,25.53
2023-03-03T19:51:27.836Z,22.30
2023-03-03T19:54:11.932Z,22.50
2023-03-03T19:56:40.629Z,22.07
2023-03-03T19:59:16.374Z,24.00
2023-03-03T20:01:49.069Z,23.63
2023-03-03T20:04:41.437Z,23.73
2023-03-03T20:07:17.311Z,22.50
2023-03-03T20:09:49.320Z,22.50
2023-03-03T20:12:37.120Z,22.90
2023-03-03T20:15:08.938Z,22.63
2023-03-03T20:18:02.771Z,23.37
2023-03-03T20:20:46.430Z,22.97
2023-03-03T20:23:20.889Z,26.80
2023-03-03T20:25:48.577Z,23.07
2023-03-03T20:28:40.610Z,22.93
2023-03-03T20:31:10.685Z,22.70
2023-03-03T20:33:47.437Z,25.90
2023-03-03T20:36:20.913Z,23.97
2023-03-03T20:38:53.864Z,25.00
2023-03-03T20:41:29.802Z,22.77
2023-03-03T20:44:07.145Z,22.80
2023-03-03T20:46:41.593Z,23.60
2023-03-03T20:49:24.709Z,22.27
2023-03-03T20:51:55.634Z,24.07
2023-03-03T20:54:29.007Z,23.17
2023-03-03T20:57:02.291Z,22.90
2023-03-03T20:59:34.111Z,23.33
2023-03-03T21:02:07.425Z,27.63
2023-03-03T21:04:35.398Z,26.33
2023-03-03T21:07:03.708Z,24.07
2023-03-03T21:09:31.055Z,24.40
2023-03-03T21:11:58.885Z,24.97
2023-03-03T21:14:27.593Z,24.57
2023-03-03T21:16:56.117Z,24.63
2023-03-03T21:19:25.040Z,24.73
2023-03-03T21:21:52.164Z,25.13
2023-03-03T21:24:19.343Z,26.33
2023-03-03T21:26:56.321Z,25.67
2023-03-03T21:29:24.999Z,25.90
2023-03-03T21:31:52.739Z,28.90
2023-03-03T21:34:24.899Z,30.07
2023-03-03T21:36:52.205Z,31.80
2023-03-03T21:39:27.483Z,31.83
2023-03-03T21:41:55.478Z,31.77
2023-03-03T21:44:29.539Z,32.57
2023-03-03T21:46:58.213Z,32.77
2023-03-03T21:49:25.202Z,33.30
2023-03-03T21:51:52.082Z,34.30
2023-03-03T21:54:18.874Z,33.97
2023-03-03T21:56:47.188Z,33.47
2023-03-03T21:59:13.605Z,33.73
2023-03-03T22:01:39.924Z,33.53
2023-03-03T22:04:06.265Z,35.00
2023-03-03T22:06:32.735Z,33.77
2023-03-03T22:08:59.050Z,32.77
2023-03-03T22:11:29.219Z,33.13
2023-03-03T22:13:55.460Z,34.70
2023-03-03T22:16:21.958Z,32.87
2023-03-03T22:18:48.192Z,32.07
2023-03-03T22:21:17.129Z,30.43
2023-03-03T22:23:43.541Z,32.93
2023-03-03T22:26:09.856Z,32.07
2023-03-03T22:28:36.741Z,30.97
2023-03-03T22:31:03.092Z,28.77
2023-03-03T22:33:29.470Z,28.03
2023-03-03T22:35:55.906Z,27.13
2023-03-03T22:38:23.049Z,29.10
2023-03-03T22:40:53.577Z,28.83
2023-03-03T22:43:19.825Z,28.27
2023-03-03T22:45:46.631Z,28.03
2023-03-03T22:48:12.856Z,29.40
2023-03-03T22:50:40.927Z,28.13
2023-03-03T22:53:07.506Z,28.30
2023-03-03T22:55:36.144Z,28.40
2023-03-03T22:58:02.596Z,28.43
2023-03-03T23:00:28.825Z,26.53
2023-03-03T23:02:55.792Z,27.87
2023-03-03T23:05:22.024Z,28.43
2023-03-03T23:07:48.461Z,27.97
2023-03-03T23:10:14.769Z,27.83
2023-03-03T23:12:41.036Z,27.50
2023-03-03T23:15:12.513Z,27.60
2023-03-03T23:17:39.073Z,27.10
2023-03-03T23:20:07.687Z,26.13
2023-03-03T23:22:33.925Z,26.80
2023-03-03T23:25:00.145Z,26.63
2023-03-03T23:27:26.427Z,26.47
2023-03-03T23:29:54.004Z,26.77
2023-03-03T23:32:20.787Z,26.37
2023-03-03T23:34:47.243Z,27.20
2023-03-03T23:37:14.383Z,27.43
2023-03-03T23:39:40.831Z,28.00
2023-03-03T23:42:07.126Z,28.23
2023-03-03T23:44:33.444Z,27.90
2023-03-03T23:46:59.860Z,27.87
2023-03-03T23:49:26.021Z,26.90
2023-03-03T23:51:52.377Z,29.23
2023-03-03T23:54:19.189Z,27.40
2023-03-03T23:56:45.482Z,28.67
2023-03-03T23:59:11.673Z,27.97
